Il blog di Sandro Rizzetto

Informazioni Metar

 

Aggiornando la pagina del Meteo in Alto Adige con i dati provenienti dalla stazione Meteo dell'Aeroporto di Bolzano, riflettevo sul fatto che sono ormai un po' di anni che si parla di webservice e xml, ma siamo ancora molto indietro in moltissimi settori.

In questo caso infatti i dati vengono esposti tramite un file ascii (!!) tramite un "esplicantissimo" formato chiamato Metar che ad esempio dice:

LIPB 151645Z 36014KT CAVOK 05/M16 Q1001

che come è perfettamente chiaro indica che su Bolzano ci sono queste condizioni

Temperatura   5 C
Temp. di Rugiada   -16 C
Umidità   20%
Pressione   1001 hPa
Condizioni cielo   non pervenute
Vento   da N (360 gradi) a 16 MPH (14 KT)
Visibilità   più di 7 miglia

il primo che mi dice che l'Xml è pesante e ridondante gli spacco la faccia !! :-)

Aggiungi Commento

Copyright © 1997-2017 Sandro Rizzetto | All Rights Reserved | Riproduzione delle fotografie vietata | Powered by me